AirNav   Air Wisconsin Up To $57,000 Bonus
 
 1212 users online  

PN63 Limerick Generating Station Heliport
Sanatoga, Pennsylvania, USA

GOING TO SANATOGA?


FAA INFORMATION EFFECTIVE 07 NOVEMBER 2019

Location

FAA Identifier: PN63
Lat/Long: 40-13-59.0000N 075-34-59.4000W
40-13.983333N 075-34.990000W
40.2330556,-75.5831667
(estimated)
Elevation: 344 ft. / 105 m (estimated)
From city: 2 miles W of SANATOGA, PA
Time zone: UTC -5 (UTC -4 during Daylight Saving Time)
Zip code: 19464

Heliport Operations

Heliport use: Private use. Permission required prior to landing
Activation date: 05/2003
Control tower: no
ARTCC: NEW YORK CENTER
FSS: WILLIAMSPORT FLIGHT SERVICE STATION
Attendance: UNATNDD
Wind indicator: lighted
Segmented circle: no
CIRCULAR HELI.

Heliport Communications

WX ASOS at PTW (1.3 nm E): 119.425 (610-495-0823)
WX AWOS-3T at OQN (15 nm S): 121.4 ((610) 692-6190)
WX AWOS-3 at UKT (15 nm NE): 119.475 (215-538-7610)
WX AWOS-3 at LOM (16 nm E): 118.925 (215-646-1068)
WX AWOS-3 at CKZ (16 nm NE): 126.325 (215-257-7291)
WX ASOS at RDG (20 nm NW): PHONE 610-372-9863

Nearby radio navigation aids

VOR radial/distance  VOR name  Freq  Var
PTWr311/1.2POTTSTOWN VORTAC116.5009W
MXEr021/19.3MODENA VORTAC113.2009W
ETXr177/21.4EAST TEXAS VOR/DME110.2009W
FJCr201/30.2ALLENTOWN VORTAC117.5010W
ARDr278/31.0YARDLEY VOR/DME108.2010W
LRPr087/33.2LANCASTER VOR/DME117.3009W
DQOr012/33.3DUPONT VORTAC114.0010W
OODr350/38.1WOODSTOWN VORTAC112.8010W

 
NDB name  Hdg/Dist  Freq  Var  ID
AMBLER307/15.127512WING .. -. --.

Heliport Services

Runway Information

Helipad H1

Dimensions: 62 x 62 ft. / 19 x 19 m
Surface: asphalt
Runway edge lights: PERI
Operational restrictions: INGRESS/EGRESS 010-190, 150-330.
Traffic pattern: leftleft

Heliport Ownership and Management from official FAA records

Ownership: Privately-owned
Owner: EXELON GENERATION CO. LLC
3146 SANATOGA RD
SANATOGA, PA 19464
Phone (610) 718-3320
Manager: OLIVER BECKER
3146 SANATOGA RD
SANATOGA, PA 19464
Phone (610) 718-3320

Additional Remarks

FOR CD CTC PHILADELPHIA APCH AT 800-354-9884.

Instrument Procedures

There are no published instrument procedures at PN63.

Some nearby airports with instrument procedures:

KPTW - Heritage Field Airport (1 nm E)
N47 - Pottstown Municipal Airport (4 nm W)
N10 - Perkiomen Valley Airport (7 nm E)
KOQN - Brandywine Regional Airport (15 nm S)
KUKT - Quakertown Airport (15 nm NE)
KLOM - Wings Field Airport (16 nm E)
KCKZ - Pennridge Airport (16 nm NE)
KRDG - Reading Regional Airport/Carl A Spaatz Field (20 nm NW)
 
Loc | Ops | Rwys | IFR | FBO | Links
Com | Nav | Svcs | Stats | Notes
Area around PN63 (Limerick Generating Station Heliport)
 
Road maps at: MapQuest Bing Google
 
Aerial photo
No photo
 
Sectional chart

 
Airport distance calculator
Flying to Limerick Generating Station Heliport? Find the distance to fly.

From to PN63

Sunrise and sunset
Times for 21-Nov-2019
 Local
(UTC-5)
 Zulu
(UTC)
Morning civil twilight06:2611:26
Sunrise06:5611:56
Sunset16:4121:41
Evening civil twilight17:1022:10

Current date and time
Zulu (UTC)  21-Nov-2019 14:34:41
Local (UTC-5)  21-Nov-2019 09:34:41
 
METAR
KPTW 
2nm E 
211354Z AUTO 30006KT 7SM CLR 06/M01 A3024 RMK AO2 SLP238 T00561006
KOQN 
15nm S 
211415Z AUTO 32004KT 10SM 06/00 A3022 RMK AO2
KUKT 
15nm NE 
211420Z AUTO 00000G11KT 10SM CLR 08/00 A3021 RMK A01
KLOM 
16nm E 
211415Z AUTO 00000KT 10SM CLR 07/01 A3023 RMK AO2 T00740006
KCKZ 
16nm NE 
211415Z AUTO 33007KT 10SM CLR 07/00 A3022 RMK AO2
KRDG 
19nm NW 
211354Z 29008KT 10SM CLR 07/01 A3023 RMK AO2 SLP244 T00670011
TAF
KRDG 
19nm NW 
211120Z 2112/2212 31007KT P6SM SKC FM211700 27005KT P6SM BKN200 FM212200 20005KT P6SM BKN150 FM220800 20004KT P6SM OVC050
NOTAMs
Click for the latest NOTAMs
NOTAMs are issued by the DoD/FAA and will open in a separate window not controlled by AirNav.

 

 
 

Would you like to see your business listed on this page?

 If your business provides an interesting product or service to pilots, flight crews, aircraft, or users of the Limerick Generating Station Heliport, you should consider listing it here.  To start the listing process, click on the button below
 
Add a business
 

Other Pages about Limerick Generating Station Heliport

Update a link
 
Copyright © AirNav, LLC. All rights reserved. Privacy Policy  Contact